sensor_id;sensor_type;location;lat;lon;timestamp;P1;durP1;ratioP1;P2;durP2;ratioP2
43744;SDS011;29359;53.048;8.732;2023-09-30T00:00:18;16.15;;;4.00;;
43744;SDS011;29359;53.048;8.732;2023-09-30T00:02:20;16.00;;;4.35;;
43744;SDS011;29359;53.048;8.732;2023-09-30T00:04:22;12.00;;;4.05;;
43744;SDS011;29359;53.048;8.732;2023-09-30T00:06:23;16.13;;;3.78;;
43744;SDS011;29359;53.048;8.732;2023-09-30T00:08:25;16.60;;;4.43;;
43744;SDS011;29359;53.048;8.732;2023-09-30T00:10:28;15.57;;;4.20;;
43744;SDS011;29359;53.048;8.732;2023-09-30T00:12:31;12.45;;;3.55;;
43744;SDS011;29359;53.048;8.732;2023-09-30T00:14:33;13.43;;;3.22;;
43744;SDS011;29359;53.048;8.732;2023-09-30T00:16:35;11.40;;;3.47;;
43744;SDS011;29359;53.048;8.732;2023-09-30T00:18:37;12.52;;;3.67;;
43744;SDS011;29359;53.048;8.732;2023-09-30T00:20:39;14.50;;;3.80;;
43744;SDS011;29359;53.048;8.732;2023-09-30T00:22:41;24.70;;;3.55;;
43744;SDS011;29359;53.048;8.732;2023-09-30T00:24:43;14.20;;;3.58;;
43744;SDS011;29359;53.048;8.732;2023-09-30T00:26:45;13.60;;;4.32;;
43744;SDS011;29359;53.048;8.732;2023-09-30T00:28:47;19.10;;;4.15;;
43744;SDS011;29359;53.048;8.732;2023-09-30T00:30:49;15.20;;;3.80;;
43744;SDS011;29359;53.048;8.732;2023-09-30T00:32:51;20.75;;;4.65;;
43744;SDS011;29359;53.048;8.732;2023-09-30T00:34:53;14.88;;;3.97;;
43744;SDS011;29359;53.048;8.732;2023-09-30T00:36:55;15.60;;;4.47;;
43744;SDS011;29359;53.048;8.732;2023-09-30T00:38:57;13.85;;;3.60;;
43744;SDS011;29359;53.048;8.732;2023-09-30T00:40:59;14.35;;;3.70;;
43744;SDS011;29359;53.048;8.732;2023-09-30T00:43:01;13.70;;;3.92;;
43744;SDS011;29359;53.048;8.732;2023-09-30T00:45:03;14.05;;;3.42;;
43744;SDS011;29359;53.048;8.732;2023-09-30T00:47:06;13.43;;;3.55;;
43744;SDS011;29359;53.048;8.732;2023-09-30T00:49:10;15.80;;;5.05;;
43744;SDS011;29359;53.048;8.732;2023-09-30T00:51:14;14.13;;;3.58;;
43744;SDS011;29359;53.048;8.732;2023-09-30T00:53:15;18.00;;;3.55;;
43744;SDS011;29359;53.048;8.732;2023-09-30T00:55:17;11.57;;;3.47;;
43744;SDS011;29359;53.048;8.732;2023-09-30T00:57:21;12.50;;;3.53;;
43744;SDS011;29359;53.048;8.732;2023-09-30T00:59:23;14.00;;;3.88;;
43744;SDS011;29359;53.048;8.732;2023-09-30T01:01:28;17.92;;;4.28;;
43744;SDS011;29359;53.048;8.732;2023-09-30T01:03:30;21.85;;;3.95;;
43744;SDS011;29359;53.048;8.732;2023-09-30T01:05:32;15.13;;;3.92;;
43744;SDS011;29359;53.048;8.732;2023-09-30T01:07:35;17.38;;;3.55;;
43744;SDS011;29359;53.048;8.732;2023-09-30T01:09:37;14.57;;;3.50;;
43744;SDS011;29359;53.048;8.732;2023-09-30T01:11:39;11.70;;;3.85;;
43744;SDS011;29359;53.048;8.732;2023-09-30T01:13:45;15.93;;;3.35;;
43744;SDS011;29359;53.048;8.732;2023-09-30T01:15:48;9.90;;;3.10;;
43744;SDS011;29359;53.048;8.732;2023-09-30T01:17:51;15.00;;;3.70;;
43744;SDS011;29359;53.048;8.732;2023-09-30T01:19:52;15.65;;;4.10;;
43744;SDS011;29359;53.048;8.732;2023-09-30T01:21:55;14.93;;;3.72;;
43744;SDS011;29359;53.048;8.732;2023-09-30T01:24:00;16.60;;;3.88;;
43744;SDS011;29359;53.048;8.732;2023-09-30T01:26:02;16.58;;;4.10;;
43744;SDS011;29359;53.048;8.732;2023-09-30T01:28:07;6.93;;;2.95;;
43744;SDS011;29359;53.048;8.732;2023-09-30T01:30:09;15.27;;;3.40;;
43744;SDS011;29359;53.048;8.732;2023-09-30T01:32:12;13.95;;;3.40;;
43744;SDS011;29359;53.048;8.732;2023-09-30T01:34:15;22.85;;;4.35;;
43744;SDS011;29359;53.048;8.732;2023-09-30T01:36:17;13.65;;;3.75;;
43744;SDS011;29359;53.048;8.732;2023-09-30T01:38:19;19.65;;;3.90;;
43744;SDS011;29359;53.048;8.732;2023-09-30T01:40:21;16.65;;;4.22;;
43744;SDS011;29359;53.048;8.732;2023-09-30T01:42:23;11.02;;;3.38;;
43744;SDS011;29359;53.048;8.732;2023-09-30T01:44:25;12.35;;;3.63;;
43744;SDS011;29359;53.048;8.732;2023-09-30T01:46:27;12.95;;;4.05;;
43744;SDS011;29359;53.048;8.732;2023-09-30T01:48:29;16.83;;;3.85;;
43744;SDS011;29359;53.048;8.732;2023-09-30T01:50:30;13.70;;;3.78;;
43744;SDS011;29359;53.048;8.732;2023-09-30T01:52:32;14.95;;;4.13;;
43744;SDS011;29359;53.048;8.732;2023-09-30T01:54:34;11.07;;;3.63;;
43744;SDS011;29359;53.048;8.732;2023-09-30T01:56:36;15.52;;;4.45;;
43744;SDS011;29359;53.048;8.732;2023-09-30T01:58:38;14.15;;;4.35;;
43744;SDS011;29359;53.048;8.732;2023-09-30T02:00:40;15.10;;;3.67;;
43744;SDS011;29359;53.048;8.732;2023-09-30T02:02:42;9.82;;;3.75;;
43744;SDS011;29359;53.048;8.732;2023-09-30T02:04:44;14.52;;;4.10;;
43744;SDS011;29359;53.048;8.732;2023-09-30T02:06:46;12.57;;;3.70;;
43744;SDS011;29359;53.048;8.732;2023-09-30T02:08:47;13.98;;;4.10;;
43744;SDS011;29359;53.048;8.732;2023-09-30T02:10:49;12.07;;;3.55;;
43744;SDS011;29359;53.048;8.732;2023-09-30T02:12:52;16.75;;;3.60;;
43744;SDS011;29359;53.048;8.732;2023-09-30T02:14:54;12.10;;;4.03;;
43744;SDS011;29359;53.048;8.732;2023-09-30T02:16:56;10.95;;;3.70;;
43744;SDS011;29359;53.048;8.732;2023-09-30T02:18:58;16.38;;;3.95;;
43744;SDS011;29359;53.048;8.732;2023-09-30T02:21:01;18.48;;;3.90;;
43744;SDS011;29359;53.048;8.732;2023-09-30T02:23:03;16.15;;;4.13;;
43744;SDS011;29359;53.048;8.732;2023-09-30T02:25:07;18.45;;;3.88;;
43744;SDS011;29359;53.048;8.732;2023-09-30T02:27:09;14.23;;;3.75;;
43744;SDS011;29359;53.048;8.732;2023-09-30T02:29:11;18.50;;;4.25;;
43744;SDS011;29359;53.048;8.732;2023-09-30T02:31:13;11.85;;;3.72;;
43744;SDS011;29359;53.048;8.732;2023-09-30T02:33:14;15.70;;;4.60;;
43744;SDS011;29359;53.048;8.732;2023-09-30T02:35:16;17.30;;;3.70;;
43744;SDS011;29359;53.048;8.732;2023-09-30T02:37:19;10.40;;;3.78;;
43744;SDS011;29359;53.048;8.732;2023-09-30T02:39:21;16.35;;;4.80;;
43744;SDS011;29359;53.048;8.732;2023-09-30T02:41:23;13.90;;;3.80;;
43744;SDS011;29359;53.048;8.732;2023-09-30T02:43:25;13.82;;;4.10;;
43744;SDS011;29359;53.048;8.732;2023-09-30T02:45:27;16.02;;;4.07;;
43744;SDS011;29359;53.048;8.732;2023-09-30T02:47:29;16.10;;;3.72;;
43744;SDS011;29359;53.048;8.732;2023-09-30T02:49:34;13.35;;;3.25;;
43744;SDS011;29359;53.048;8.732;2023-09-30T02:51:36;15.30;;;4.03;;
43744;SDS011;29359;53.048;8.732;2023-09-30T02:53:38;10.23;;;3.75;;
43744;SDS011;29359;53.048;8.732;2023-09-30T02:55:41;15.73;;;4.65;;
43744;SDS011;29359;53.048;8.732;2023-09-30T02:57:43;13.93;;;3.67;;
43744;SDS011;29359;53.048;8.732;2023-09-30T02:59:45;13.90;;;4.43;;
43744;SDS011;29359;53.048;8.732;2023-09-30T03:01:47;12.57;;;3.60;;
43744;SDS011;29359;53.048;8.732;2023-09-30T03:03:49;14.27;;;4.22;;
43744;SDS011;29359;53.048;8.732;2023-09-30T03:05:52;12.55;;;3.65;;
43744;SDS011;29359;53.048;8.732;2023-09-30T03:07:54;14.48;;;3.72;;
43744;SDS011;29359;53.048;8.732;2023-09-30T03:09:56;10.98;;;3.42;;
43744;SDS011;29359;53.048;8.732;2023-09-30T03:11:58;19.90;;;4.13;;
43744;SDS011;29359;53.048;8.732;2023-09-30T03:14:00;17.63;;;3.55;;
43744;SDS011;29359;53.048;8.732;2023-09-30T03:16:02;17.33;;;4.40;;
43744;SDS011;29359;53.048;8.732;2023-09-30T03:18:04;17.42;;;3.78;;
43744;SDS011;29359;53.048;8.732;2023-09-30T03:20:07;17.77;;;3.90;;
43744;SDS011;29359;53.048;8.732;2023-09-30T03:22:13;10.25;;;3.65;;
43744;SDS011;29359;53.048;8.732;2023-09-30T03:24:15;14.90;;;3.88;;
43744;SDS011;29359;53.048;8.732;2023-09-30T03:26:16;20.38;;;3.90;;
43744;SDS011;29359;53.048;8.732;2023-09-30T03:28:18;17.40;;;4.68;;
43744;SDS011;29359;53.048;8.732;2023-09-30T03:30:20;17.88;;;4.60;;
43744;SDS011;29359;53.048;8.732;2023-09-30T03:32:22;16.95;;;4.43;;
43744;SDS011;29359;53.048;8.732;2023-09-30T03:34:24;16.20;;;4.13;;
43744;SDS011;29359;53.048;8.732;2023-09-30T03:36:25;14.73;;;3.83;;
43744;SDS011;29359;53.048;8.732;2023-09-30T03:38:27;12.15;;;3.38;;
43744;SDS011;29359;53.048;8.732;2023-09-30T03:40:29;17.00;;;4.05;;
43744;SDS011;29359;53.048;8.732;2023-09-30T03:42:35;13.32;;;4.32;;
43744;SDS011;29359;53.048;8.732;2023-09-30T03:44:37;12.77;;;3.78;;
43744;SDS011;29359;53.048;8.732;2023-09-30T03:46:40;14.40;;;4.32;;
43744;SDS011;29359;53.048;8.732;2023-09-30T03:48:42;17.38;;;5.05;;
43744;SDS011;29359;53.048;8.732;2023-09-30T03:50:46;12.95;;;4.50;;
43744;SDS011;29359;53.048;8.732;2023-09-30T03:52:48;21.73;;;4.05;;
43744;SDS011;29359;53.048;8.732;2023-09-30T03:54:51;20.65;;;4.50;;
43744;SDS011;29359;53.048;8.732;2023-09-30T03:56:52;16.77;;;3.92;;
43744;SDS011;29359;53.048;8.732;2023-09-30T03:58:54;15.90;;;4.40;;
43744;SDS011;29359;53.048;8.732;2023-09-30T04:00:56;13.65;;;3.88;;
43744;SDS011;29359;53.048;8.732;2023-09-30T04:02:58;15.50;;;4.00;;
43744;SDS011;29359;53.048;8.732;2023-09-30T04:05:00;11.18;;;3.50;;
43744;SDS011;29359;53.048;8.732;2023-09-30T04:07:06;16.83;;;3.88;;
43744;SDS011;29359;53.048;8.732;2023-09-30T04:09:11;12.60;;;4.07;;
43744;SDS011;29359;53.048;8.732;2023-09-30T04:11:13;10.50;;;3.92;;
43744;SDS011;29359;53.048;8.732;2023-09-30T04:13:19;11.57;;;3.65;;
43744;SDS011;29359;53.048;8.732;2023-09-30T04:15:22;17.27;;;3.97;;
43744;SDS011;29359;53.048;8.732;2023-09-30T04:17:24;12.43;;;3.92;;
43744;SDS011;29359;53.048;8.732;2023-09-30T04:19:28;15.00;;;4.40;;
43744;SDS011;29359;53.048;8.732;2023-09-30T04:21:31;15.32;;;4.03;;
43744;SDS011;29359;53.048;8.732;2023-09-30T04:23:36;18.10;;;4.47;;
43744;SDS011;29359;53.048;8.732;2023-09-30T04:25:38;16.48;;;4.30;;
43744;SDS011;29359;53.048;8.732;2023-09-30T04:27:39;8.93;;;4.07;;
43744;SDS011;29359;53.048;8.732;2023-09-30T04:29:42;14.50;;;4.15;;
43744;SDS011;29359;53.048;8.732;2023-09-30T04:31:43;16.15;;;4.43;;
43744;SDS011;29359;53.048;8.732;2023-09-30T04:33:46;13.65;;;3.97;;
43744;SDS011;29359;53.048;8.732;2023-09-30T04:35:48;16.02;;;4.57;;
43744;SDS011;29359;53.048;8.732;2023-09-30T04:37:50;10.35;;;3.95;;
43744;SDS011;29359;53.048;8.732;2023-09-30T04:39:52;12.38;;;4.05;;
43744;SDS011;29359;53.048;8.732;2023-09-30T04:41:55;16.63;;;3.75;;
43744;SDS011;29359;53.048;8.732;2023-09-30T04:43:57;12.57;;;3.70;;
43744;SDS011;29359;53.048;8.732;2023-09-30T04:45:59;16.52;;;4.10;;
43744;SDS011;29359;53.048;8.732;2023-09-30T04:48:01;18.08;;;4.78;;
43744;SDS011;29359;53.048;8.732;2023-09-30T04:50:06;12.48;;;3.53;;
43744;SDS011;29359;53.048;8.732;2023-09-30T04:52:09;8.90;;;3.42;;
43744;SDS011;29359;53.048;8.732;2023-09-30T04:54:12;16.92;;;4.10;;
43744;SDS011;29359;53.048;8.732;2023-09-30T04:56:14;18.02;;;4.70;;
43744;SDS011;29359;53.048;8.732;2023-09-30T04:58:16;17.65;;;3.70;;
43744;SDS011;29359;53.048;8.732;2023-09-30T05:00:18;14.80;;;4.18;;
43744;SDS011;29359;53.048;8.732;2023-09-30T05:02:27;12.18;;;3.47;;
43744;SDS011;29359;53.048;8.732;2023-09-30T05:04:29;13.77;;;3.92;;
43744;SDS011;29359;53.048;8.732;2023-09-30T05:06:32;14.20;;;3.30;;
43744;SDS011;29359;53.048;8.732;2023-09-30T05:08:34;13.48;;;4.15;;
43744;SDS011;29359;53.048;8.732;2023-09-30T05:10:37;13.98;;;4.07;;
43744;SDS011;29359;53.048;8.732;2023-09-30T05:12:39;14.07;;;3.70;;
43744;SDS011;29359;53.048;8.732;2023-09-30T05:14:48;20.13;;;4.22;;
43744;SDS011;29359;53.048;8.732;2023-09-30T05:16:50;15.65;;;3.92;;
43744;SDS011;29359;53.048;8.732;2023-09-30T05:18:52;11.65;;;3.35;;
43744;SDS011;29359;53.048;8.732;2023-09-30T05:20:54;20.80;;;4.00;;
43744;SDS011;29359;53.048;8.732;2023-09-30T05:22:55;14.95;;;4.28;;
43744;SDS011;29359;53.048;8.732;2023-09-30T05:24:57;11.90;;;4.88;;
43744;SDS011;29359;53.048;8.732;2023-09-30T05:26:59;13.25;;;4.32;;
43744;SDS011;29359;53.048;8.732;2023-09-30T05:29:01;16.05;;;3.88;;
43744;SDS011;29359;53.048;8.732;2023-09-30T05:31:03;16.05;;;4.65;;
43744;SDS011;29359;53.048;8.732;2023-09-30T05:33:06;14.90;;;3.95;;
43744;SDS011;29359;53.048;8.732;2023-09-30T05:35:08;13.60;;;3.30;;
43744;SDS011;29359;53.048;8.732;2023-09-30T05:37:15;20.55;;;4.22;;
43744;SDS011;29359;53.048;8.732;2023-09-30T05:39:16;16.27;;;3.70;;
43744;SDS011;29359;53.048;8.732;2023-09-30T05:41:21;10.80;;;3.35;;
43744;SDS011;29359;53.048;8.732;2023-09-30T05:43:23;12.00;;;3.58;;
43744;SDS011;29359;53.048;8.732;2023-09-30T05:45:30;16.77;;;3.97;;
43744;SDS011;29359;53.048;8.732;2023-09-30T05:47:33;16.30;;;3.90;;
43744;SDS011;29359;53.048;8.732;2023-09-30T05:49:35;18.35;;;4.10;;
43744;SDS011;29359;53.048;8.732;2023-09-30T05:51:37;17.13;;;3.95;;
43744;SDS011;29359;53.048;8.732;2023-09-30T05:53:39;10.07;;;3.45;;
43744;SDS011;29359;53.048;8.732;2023-09-30T05:55:42;14.85;;;4.30;;
43744;SDS011;29359;53.048;8.732;2023-09-30T05:57:44;26.05;;;3.90;;
43744;SDS011;29359;53.048;8.732;2023-09-30T05:59:46;12.52;;;3.65;;
43744;SDS011;29359;53.048;8.732;2023-09-30T06:01:48;10.05;;;3.83;;
43744;SDS011;29359;53.048;8.732;2023-09-30T06:03:50;12.20;;;3.40;;
43744;SDS011;29359;53.048;8.732;2023-09-30T06:05:52;10.70;;;3.42;;
43744;SDS011;29359;53.048;8.732;2023-09-30T06:07:54;14.75;;;3.85;;
43744;SDS011;29359;53.048;8.732;2023-09-30T06:09:56;15.70;;;3.33;;
43744;SDS011;29359;53.048;8.732;2023-09-30T06:11:58;14.40;;;3.75;;
43744;SDS011;29359;53.048;8.732;2023-09-30T06:14:01;14.45;;;3.35;;
43744;SDS011;29359;53.048;8.732;2023-09-30T06:16:03;12.93;;;4.15;;
43744;SDS011;29359;53.048;8.732;2023-09-30T06:18:08;13.00;;;3.85;;
43744;SDS011;29359;53.048;8.732;2023-09-30T06:20:11;13.43;;;4.03;;
43744;SDS011;29359;53.048;8.732;2023-09-30T06:22:17;18.40;;;5.20;;
43744;SDS011;29359;53.048;8.732;2023-09-30T06:24:19;11.55;;;3.83;;
43744;SDS011;29359;53.048;8.732;2023-09-30T06:26:22;16.13;;;4.10;;
43744;SDS011;29359;53.048;8.732;2023-09-30T06:28:26;11.73;;;3.70;;
43744;SDS011;29359;53.048;8.732;2023-09-30T06:30:29;12.90;;;4.43;;
43744;SDS011;29359;53.048;8.732;2023-09-30T06:32:32;17.20;;;4.00;;
43744;SDS011;29359;53.048;8.732;2023-09-30T06:34:35;10.68;;;3.50;;
43744;SDS011;29359;53.048;8.732;2023-09-30T06:36:36;13.10;;;4.13;;
43744;SDS011;29359;53.048;8.732;2023-09-30T06:38:43;16.23;;;4.00;;
43744;SDS011;29359;53.048;8.732;2023-09-30T06:40:46;16.95;;;3.75;;
43744;SDS011;29359;53.048;8.732;2023-09-30T06:42:48;12.70;;;4.03;;
43744;SDS011;29359;53.048;8.732;2023-09-30T06:44:50;17.63;;;3.88;;
43744;SDS011;29359;53.048;8.732;2023-09-30T06:46:54;15.88;;;3.70;;
43744;SDS011;29359;53.048;8.732;2023-09-30T06:48:56;13.90;;;4.38;;
43744;SDS011;29359;53.048;8.732;2023-09-30T06:50:58;12.25;;;3.72;;
43744;SDS011;29359;53.048;8.732;2023-09-30T06:53:01;16.33;;;4.85;;
43744;SDS011;29359;53.048;8.732;2023-09-30T06:55:03;19.77;;;4.15;;
43744;SDS011;29359;53.048;8.732;2023-09-30T06:57:06;16.00;;;3.80;;
43744;SDS011;29359;53.048;8.732;2023-09-30T06:59:09;14.20;;;4.07;;
43744;SDS011;29359;53.048;8.732;2023-09-30T07:01:14;12.40;;;3.75;;
43744;SDS011;29359;53.048;8.732;2023-09-30T07:03:18;12.48;;;3.60;;
43744;SDS011;29359;53.048;8.732;2023-09-30T07:05:25;11.95;;;3.78;;
43744;SDS011;29359;53.048;8.732;2023-09-30T07:07:28;17.98;;;4.18;;
43744;SDS011;29359;53.048;8.732;2023-09-30T07:09:30;13.40;;;3.97;;
43744;SDS011;29359;53.048;8.732;2023-09-30T07:11:32;13.13;;;3.78;;
43744;SDS011;29359;53.048;8.732;2023-09-30T07:13:34;16.45;;;3.75;;
43744;SDS011;29359;53.048;8.732;2023-09-30T07:15:36;12.13;;;3.90;;
43744;SDS011;29359;53.048;8.732;2023-09-30T07:17:39;12.40;;;3.22;;
43744;SDS011;29359;53.048;8.732;2023-09-30T07:19:45;12.05;;;3.78;;
43744;SDS011;29359;53.048;8.732;2023-09-30T07:21:47;12.57;;;4.22;;
43744;SDS011;29359;53.048;8.732;2023-09-30T07:24:04;12.57;;;3.80;;
43744;SDS011;29359;53.048;8.732;2023-09-30T07:26:06;17.75;;;3.70;;
43744;SDS011;29359;53.048;8.732;2023-09-30T07:28:08;15.18;;;3.50;;
43744;SDS011;29359;53.048;8.732;2023-09-30T07:30:13;12.68;;;4.10;;
43744;SDS011;29359;53.048;8.732;2023-09-30T07:32:17;9.68;;;3.42;;
43744;SDS011;29359;53.048;8.732;2023-09-30T07:34:19;14.55;;;4.97;;
43744;SDS011;29359;53.048;8.732;2023-09-30T07:36:21;10.27;;;3.47;;
43744;SDS011;29359;53.048;8.732;2023-09-30T07:38:23;13.45;;;3.75;;
43744;SDS011;29359;53.048;8.732;2023-09-30T07:40:24;12.88;;;3.70;;
43744;SDS011;29359;53.048;8.732;2023-09-30T07:42:26;17.00;;;3.83;;
43744;SDS011;29359;53.048;8.732;2023-09-30T07:44:28;13.95;;;3.88;;
43744;SDS011;29359;53.048;8.732;2023-09-30T07:46:30;16.17;;;4.07;;
43744;SDS011;29359;53.048;8.732;2023-09-30T07:48:33;12.50;;;3.65;;
43744;SDS011;29359;53.048;8.732;2023-09-30T07:50:36;9.15;;;3.20;;
43744;SDS011;29359;53.048;8.732;2023-09-30T07:52:40;10.80;;;3.60;;
43744;SDS011;29359;53.048;8.732;2023-09-30T07:54:43;14.18;;;3.03;;
43744;SDS011;29359;53.048;8.732;2023-09-30T07:56:45;18.02;;;4.50;;
43744;SDS011;29359;53.048;8.732;2023-09-30T07:58:47;16.02;;;3.80;;
43744;SDS011;29359;53.048;8.732;2023-09-30T08:00:50;11.50;;;3.38;;
43744;SDS011;29359;53.048;8.732;2023-09-30T08:02:52;10.23;;;2.88;;
43744;SDS011;29359;53.048;8.732;2023-09-30T08:04:54;8.70;;;2.85;;
43744;SDS011;29359;53.048;8.732;2023-09-30T08:06:55;17.27;;;3.97;;
43744;SDS011;29359;53.048;8.732;2023-09-30T08:08:57;19.33;;;3.97;;
43744;SDS011;29359;53.048;8.732;2023-09-30T08:10:59;13.55;;;3.22;;
43744;SDS011;29359;53.048;8.732;2023-09-30T08:13:01;9.73;;;3.65;;
43744;SDS011;29359;53.048;8.732;2023-09-30T08:15:04;8.02;;;3.30;;
43744;SDS011;29359;53.048;8.732;2023-09-30T08:17:07;20.42;;;4.53;;
43744;SDS011;29359;53.048;8.732;2023-09-30T08:19:09;10.15;;;3.03;;
43744;SDS011;29359;53.048;8.732;2023-09-30T08:21:11;10.80;;;2.90;;
43744;SDS011;29359;53.048;8.732;2023-09-30T08:23:13;10.95;;;3.58;;
43744;SDS011;29359;53.048;8.732;2023-09-30T08:25:14;16.27;;;3.67;;
43744;SDS011;29359;53.048;8.732;2023-09-30T08:27:16;19.35;;;4.20;;
43744;SDS011;29359;53.048;8.732;2023-09-30T08:29:18;13.02;;;3.35;;
43744;SDS011;29359;53.048;8.732;2023-09-30T08:31:20;14.02;;;3.65;;
43744;SDS011;29359;53.048;8.732;2023-09-30T08:33:23;7.32;;;3.00;;
43744;SDS011;29359;53.048;8.732;2023-09-30T08:35:25;14.02;;;3.95;;
43744;SDS011;29359;53.048;8.732;2023-09-30T08:37:27;9.80;;;2.83;;
43744;SDS011;29359;53.048;8.732;2023-09-30T08:39:29;15.65;;;3.50;;
43744;SDS011;29359;53.048;8.732;2023-09-30T08:41:32;8.30;;;2.85;;
43744;SDS011;29359;53.048;8.732;2023-09-30T08:43:36;15.07;;;3.50;;
43744;SDS011;29359;53.048;8.732;2023-09-30T08:45:40;12.18;;;3.42;;
43744;SDS011;29359;53.048;8.732;2023-09-30T08:47:46;11.73;;;3.88;;
43744;SDS011;29359;53.048;8.732;2023-09-30T08:49:48;10.82;;;2.95;;
43744;SDS011;29359;53.048;8.732;2023-09-30T08:51:56;9.95;;;2.75;;
43744;SDS011;29359;53.048;8.732;2023-09-30T08:54:00;10.52;;;2.92;;
43744;SDS011;29359;53.048;8.732;2023-09-30T08:56:05;12.68;;;3.10;;
43744;SDS011;29359;53.048;8.732;2023-09-30T08:58:12;8.07;;;2.75;;
43744;SDS011;29359;53.048;8.732;2023-09-30T09:00:14;8.63;;;3.30;;
43744;SDS011;29359;53.048;8.732;2023-09-30T09:02:16;15.85;;;3.03;;
43744;SDS011;29359;53.048;8.732;2023-09-30T09:04:18;11.50;;;3.55;;
43744;SDS011;29359;53.048;8.732;2023-09-30T09:06:20;15.60;;;3.42;;
43744;SDS011;29359;53.048;8.732;2023-09-30T09:08:26;11.35;;;2.58;;
43744;SDS011;29359;53.048;8.732;2023-09-30T09:10:28;9.05;;;3.03;;
43744;SDS011;29359;53.048;8.732;2023-09-30T09:12:30;8.00;;;2.78;;
43744;SDS011;29359;53.048;8.732;2023-09-30T09:14:41;11.68;;;3.05;;
43744;SDS011;29359;53.048;8.732;2023-09-30T09:16:51;6.90;;;2.65;;
43744;SDS011;29359;53.048;8.732;2023-09-30T09:18:57;10.80;;;3.28;;
43744;SDS011;29359;53.048;8.732;2023-09-30T09:21:09;8.63;;;2.78;;
43744;SDS011;29359;53.048;8.732;2023-09-30T09:23:15;10.15;;;2.65;;
43744;SDS011;29359;53.048;8.732;2023-09-30T09:25:16;12.98;;;3.08;;
43744;SDS011;29359;53.048;8.732;2023-09-30T09:27:18;10.18;;;2.85;;
43744;SDS011;29359;53.048;8.732;2023-09-30T09:29:24;9.75;;;2.47;;
43744;SDS011;29359;53.048;8.732;2023-09-30T09:31:31;8.85;;;3.50;;
43744;SDS011;29359;53.048;8.732;2023-09-30T09:33:36;9.80;;;2.50;;
43744;SDS011;29359;53.048;8.732;2023-09-30T09:35:41;11.27;;;2.85;;
43744;SDS011;29359;53.048;8.732;2023-09-30T09:40:00;7.53;;;2.40;;
43744;SDS011;29359;53.048;8.732;2023-09-30T09:42:03;10.27;;;2.63;;
43744;SDS011;29359;53.048;8.732;2023-09-30T09:44:05;8.25;;;2.90;;
43744;SDS011;29359;53.048;8.732;2023-09-30T09:46:08;13.60;;;2.80;;
43744;SDS011;29359;53.048;8.732;2023-09-30T09:48:10;9.45;;;2.50;;
43744;SDS011;29359;53.048;8.732;2023-09-30T09:50:12;9.05;;;2.10;;
43744;SDS011;29359;53.048;8.732;2023-09-30T09:52:16;10.80;;;2.30;;
43744;SDS011;29359;53.048;8.732;2023-09-30T09:54:20;10.55;;;2.30;;
43744;SDS011;29359;53.048;8.732;2023-09-30T09:56:24;8.02;;;2.10;;
43744;SDS011;29359;53.048;8.732;2023-09-30T09:58:26;8.65;;;2.38;;
43744;SDS011;29359;53.048;8.732;2023-09-30T10:00:29;6.78;;;2.22;;
43744;SDS011;29359;53.048;8.732;2023-09-30T10:02:33;8.57;;;2.22;;
43744;SDS011;29359;53.048;8.732;2023-09-30T10:04:35;8.73;;;1.70;;
43744;SDS011;29359;53.048;8.732;2023-09-30T10:06:39;7.28;;;2.17;;
43744;SDS011;29359;53.048;8.732;2023-09-30T10:08:43;10.45;;;2.05;;
43744;SDS011;29359;53.048;8.732;2023-09-30T10:10:48;8.52;;;2.22;;
43744;SDS011;29359;53.048;8.732;2023-09-30T10:12:51;13.10;;;2.38;;
43744;SDS011;29359;53.048;8.732;2023-09-30T10:14:53;10.07;;;1.80;;
43744;SDS011;29359;53.048;8.732;2023-09-30T10:16:55;10.27;;;2.40;;
43744;SDS011;29359;53.048;8.732;2023-09-30T10:19:07;10.60;;;2.13;;
43744;SDS011;29359;53.048;8.732;2023-09-30T10:21:10;8.25;;;1.38;;
43744;SDS011;29359;53.048;8.732;2023-09-30T10:23:18;7.90;;;1.90;;
43744;SDS011;29359;53.048;8.732;2023-09-30T10:25:34;8.52;;;1.88;;
43744;SDS011;29359;53.048;8.732;2023-09-30T10:27:37;7.35;;;2.00;;
43744;SDS011;29359;53.048;8.732;2023-09-30T10:29:39;5.78;;;1.33;;
43744;SDS011;29359;53.048;8.732;2023-09-30T10:31:50;10.02;;;1.50;;
43744;SDS011;29359;53.048;8.732;2023-09-30T10:36:03;6.80;;;1.73;;
43744;SDS011;29359;53.048;8.732;2023-09-30T10:40:27;7.60;;;1.73;;
43744;SDS011;29359;53.048;8.732;2023-09-30T10:42:45;8.43;;;1.98;;
43744;SDS011;29359;53.048;8.732;2023-09-30T10:44:47;6.70;;;1.67;;
43744;SDS011;29359;53.048;8.732;2023-09-30T10:46:52;8.23;;;1.92;;
43744;SDS011;29359;53.048;8.732;2023-09-30T10:48:54;8.98;;;1.70;;
43744;SDS011;29359;53.048;8.732;2023-09-30T10:50:59;7.93;;;1.35;;
43744;SDS011;29359;53.048;8.732;2023-09-30T10:53:05;7.28;;;1.20;;
43744;SDS011;29359;53.048;8.732;2023-09-30T10:55:11;4.57;;;1.70;;
43744;SDS011;29359;53.048;8.732;2023-09-30T10:57:27;6.03;;;1.50;;
43744;SDS011;29359;53.048;8.732;2023-09-30T10:59:30;6.45;;;1.35;;
43744;SDS011;29359;53.048;8.732;2023-09-30T11:01:34;5.55;;;1.73;;
43744;SDS011;29359;53.048;8.732;2023-09-30T11:03:36;6.50;;;1.42;;
43744;SDS011;29359;53.048;8.732;2023-09-30T11:05:38;11.27;;;1.65;;
43744;SDS011;29359;53.048;8.732;2023-09-30T11:08:01;12.20;;;1.70;;
43744;SDS011;29359;53.048;8.732;2023-09-30T11:10:05;9.48;;;1.60;;
43744;SDS011;29359;53.048;8.732;2023-09-30T11:12:13;7.20;;;1.75;;
43744;SDS011;29359;53.048;8.732;2023-09-30T11:14:16;5.20;;;1.45;;
43744;SDS011;29359;53.048;8.732;2023-09-30T11:16:41;6.70;;;1.33;;
43744;SDS011;29359;53.048;8.732;2023-09-30T11:18:44;7.18;;;1.45;;
43744;SDS011;29359;53.048;8.732;2023-09-30T11:20:47;10.35;;;1.75;;
43744;SDS011;29359;53.048;8.732;2023-09-30T11:22:49;6.03;;;1.27;;
43744;SDS011;29359;53.048;8.732;2023-09-30T11:24:51;5.95;;;1.40;;
43744;SDS011;29359;53.048;8.732;2023-09-30T11:26:54;6.28;;;1.10;;
43744;SDS011;29359;53.048;8.732;2023-09-30T11:29:05;9.13;;;1.92;;
43744;SDS011;29359;53.048;8.732;2023-09-30T11:31:10;9.38;;;1.67;;
43744;SDS011;29359;53.048;8.732;2023-09-30T11:33:13;8.23;;;1.52;;
43744;SDS011;29359;53.048;8.732;2023-09-30T11:35:21;4.85;;;1.27;;
43744;SDS011;29359;53.048;8.732;2023-09-30T11:37:34;6.90;;;1.30;;
43744;SDS011;29359;53.048;8.732;2023-09-30T11:39:36;5.35;;;1.48;;
43744;SDS011;29359;53.048;8.732;2023-09-30T11:41:38;6.47;;;1.40;;
43744;SDS011;29359;53.048;8.732;2023-09-30T11:43:58;9.18;;;1.30;;
43744;SDS011;29359;53.048;8.732;2023-09-30T11:46:09;5.10;;;1.15;;
43744;SDS011;29359;53.048;8.732;2023-09-30T11:48:16;8.65;;;1.40;;
43744;SDS011;29359;53.048;8.732;2023-09-30T11:50:20;7.13;;;1.45;;
43744;SDS011;29359;53.048;8.732;2023-09-30T11:52:26;5.75;;;1.60;;
43744;SDS011;29359;53.048;8.732;2023-09-30T11:54:32;7.25;;;1.70;;
43744;SDS011;29359;53.048;8.732;2023-09-30T11:56:42;8.43;;;1.20;;
43744;SDS011;29359;53.048;8.732;2023-09-30T11:58:44;4.22;;;1.00;;
43744;SDS011;29359;53.048;8.732;2023-09-30T12:00:47;4.15;;;1.27;;
43744;SDS011;29359;53.048;8.732;2023-09-30T12:02:52;9.63;;;1.50;;
43744;SDS011;29359;53.048;8.732;2023-09-30T12:04:55;5.25;;;1.50;;
43744;SDS011;29359;53.048;8.732;2023-09-30T12:06:57;2.33;;;1.17;;
43744;SDS011;29359;53.048;8.732;2023-09-30T12:08:59;6.20;;;1.67;;
43744;SDS011;29359;53.048;8.732;2023-09-30T12:11:01;8.70;;;1.42;;
43744;SDS011;29359;53.048;8.732;2023-09-30T12:13:03;9.77;;;1.23;;
43744;SDS011;29359;53.048;8.732;2023-09-30T12:15:06;4.50;;;1.10;;
43744;SDS011;29359;53.048;8.732;2023-09-30T12:17:11;4.32;;;1.35;;
43744;SDS011;29359;53.048;8.732;2023-09-30T12:19:14;4.22;;;1.10;;
43744;SDS011;29359;53.048;8.732;2023-09-30T12:21:16;8.10;;;1.55;;